Gilbert, Arizona
Current Conditions -  °F | °C
As of 3:47 PM on Friday 19 Dec 2014 (Local Time) from KCHD Reporting Station
Scattered Clouds Scattered Clouds  
Wind Chill: 16°   Ceiling: Unl
Heat Index: 16°   Visibility: 40mi
Dew Point:   Wind: 9mph
Humidity: 48%   Direction: 260°W
Pressure: 30.13"   Gusts: NA
Location:  33.33°N, 111.78°W
Report Text: KCHD 192247Z 26008KT 40SM SCT250 16/05 A3013
Loading
Personal Weather Stations






























Interactive Weather Map New forecast layout! Learn more

10-Day Weather Forecast

Advertisements
Track Severe Weather on mobile